ETD9R5 OMAA-YSSY
Flight info
| Callsign | ETD9R5 |
|---|---|
| Flight time | N/A |
| Altitude | 33000 |
| Route | KANIP N318 TOLDA P570 EMURU M300 VASTU P895 BIKOK M641 RUXER/N0504F350 M641 DOGAR DCT 05S090E 10S094E 16S100E/N0496F370 DCT IKASA DCT 27S111E DCT POKIP DCT 31S118E/N0485F390 DCT SORTU DCT 33S123E 3330S12500E DCT MOSLA Y135 TEDUS J15 AD H247 CULIN Y59 RIVET |
| Aircraft | A35K/H-SDE2E3GHIJ3J4J5LM1ORWXY/LB1D1 |
Departure
| Time | 2026-05-07 05:46 |
|---|---|
| Airport | Zayed International Airport (OMAA) |
Arrival
| Time | N/A |
|---|---|
| Airport | Sydney Kingsford Smith International Airport (YSSY) |
| Time | Latitude | Longitude | Altitude | Speed | Heading |
|---|---|---|---|---|---|
| 2026-05-07 05:25 | 24.45017 | 54.64585 | 81 ft | 0 kts | 13° |
| 2026-05-07 05:34 | 24.45000 | 54.64580 | 82 ft | 4 kts | 13° |
| 2026-05-07 05:34 | 24.44978 | 54.64574 | 86 ft | 3 kts | 13° |
| 2026-05-07 05:34 | 24.44953 | 54.64572 | 86 ft | 4 kts | 342° |
| 2026-05-07 05:34 | 24.44932 | 54.64587 | 86 ft | 4 kts | 303° |
| 2026-05-07 05:35 | 24.44921 | 54.64612 | 85 ft | 4 kts | 289° |
| 2026-05-07 05:35 | 24.44912 | 54.64640 | 87 ft | 4 kts | 289° |
| 2026-05-07 05:35 | 24.44903 | 54.64667 | 86 ft | 4 kts | 289° |
| 2026-05-07 05:35 | 24.44895 | 54.64691 | 86 ft | 1 kts | 289° |
| 2026-05-07 05:38 | 24.44898 | 54.64681 | 81 ft | 2 kts | 290° |
| 2026-05-07 05:39 | 24.44905 | 54.64659 | 86 ft | 4 kts | 287° |
| 2026-05-07 05:39 | 24.44908 | 54.64623 | 81 ft | 5 kts | 262° |
| 2026-05-07 05:39 | 24.44884 | 54.64593 | 85 ft | 6 kts | 210° |
| 2026-05-07 05:39 | 24.44838 | 54.64595 | 86 ft | 8 kts | 165° |
| 2026-05-07 05:40 | 24.44778 | 54.64619 | 84 ft | 10 kts | 155° |
| 2026-05-07 05:40 | 24.44713 | 54.64670 | 85 ft | 13 kts | 133° |
| 2026-05-07 05:40 | 24.44653 | 54.64752 | 84 ft | 15 kts | 131° |
| 2026-05-07 05:40 | 24.44567 | 54.64748 | 86 ft | 15 kts | 218° |
| 2026-05-07 05:41 | 24.44482 | 54.64674 | 87 ft | 16 kts | 218° |
| 2026-05-07 05:41 | 24.44388 | 54.64595 | 87 ft | 18 kts | 218° |
| 2026-05-07 05:41 | 24.44344 | 54.64557 | 86 ft | 18 kts | 218° |
| 2026-05-07 05:41 | 24.44274 | 54.64478 | 87 ft | 18 kts | 248° |
| 2026-05-07 05:42 | 24.44208 | 54.64366 | 87 ft | 17 kts | 238° |
| 2026-05-07 05:42 | 24.44246 | 54.64263 | 87 ft | 15 kts | 307° |
| 2026-05-07 05:42 | 24.44312 | 54.64168 | 87 ft | 16 kts | 307° |
| 2026-05-07 05:42 | 24.44382 | 54.64071 | 86 ft | 16 kts | 307° |
| 2026-05-07 05:43 | 24.44452 | 54.63971 | 86 ft | 17 kts | 307° |
| 2026-05-07 05:43 | 24.44524 | 54.63869 | 87 ft | 17 kts | 308° |
| 2026-05-07 05:43 | 24.44535 | 54.63760 | 87 ft | 15 kts | 241° |
| 2026-05-07 05:43 | 24.44542 | 54.63658 | 85 ft | 13 kts | 266° |
| 2026-05-07 05:44 | 24.44490 | 54.63582 | 88 ft | 13 kts | 213° |
| 2026-05-07 05:44 | 24.44413 | 54.63564 | 86 ft | 11 kts | 153° |
| 2026-05-07 05:44 | 24.44390 | 54.63592 | 85 ft | 0 kts | 128° |
| 2026-05-07 05:45 | 24.44350 | 54.63649 | 85 ft | 34 kts | 128° |
| 2026-05-07 05:45 | 24.44081 | 54.64026 | 89 ft | 90 kts | 128° |
| 2026-05-07 05:45 | 24.43594 | 54.64713 | 87 ft | 137 kts | 128° |
| 2026-05-07 05:45 | 24.42922 | 54.65662 | 113 ft | 175 kts | 127° |
| 2026-05-07 05:46 | 24.42202 | 54.66750 | 566 ft | 177 kts | 126° |
| 2026-05-07 05:46 | 24.41494 | 54.67886 | 947 ft | 184 kts | 126° |
| 2026-05-07 05:46 | 24.40753 | 54.69071 | 1358 ft | 191 kts | 127° |
| 2026-05-07 05:46 | 24.40048 | 54.70322 | 1742 ft | 194 kts | 124° |
| 2026-05-07 05:47 | 24.39328 | 54.71603 | 2021 ft | 201 kts | 129° |
| 2026-05-07 05:47 | 24.38445 | 54.72804 | 2311 ft | 206 kts | 136° |
| 2026-05-07 05:47 | 24.37422 | 54.73971 | 2491 ft | 218 kts | 137° |
| 2026-05-07 05:47 | 24.36365 | 54.75231 | 2678 ft | 232 kts | 134° |
| 2026-05-07 05:48 | 24.35290 | 54.76612 | 2979 ft | 241 kts | 133° |
| 2026-05-07 05:48 | 24.34218 | 54.78052 | 3360 ft | 248 kts | 131° |
| 2026-05-07 05:48 | 24.33117 | 54.79562 | 3680 ft | 257 kts | 130° |
| 2026-05-07 05:48 | 24.32013 | 54.81098 | 4220 ft | 256 kts | 130° |
| 2026-05-07 05:49 | 24.30902 | 54.82653 | 4594 ft | 262 kts | 129° |
| 2026-05-07 05:49 | 24.29766 | 54.84242 | 4992 ft | 267 kts | 129° |
| 2026-05-07 05:49 | 24.28618 | 54.85854 | 5469 ft | 269 kts | 128° |
| 2026-05-07 05:49 | 24.27457 | 54.87488 | 5864 ft | 274 kts | 128° |
| 2026-05-07 05:50 | 24.26293 | 54.89120 | 6315 ft | 277 kts | 127° |